Time;durP1;ratioP1;P1;durP2;ratioP2;P2;SDS_P1;SDS_P2;PMS_P1;PMS_P2;Temp;Humidity;BMP_temperature;BMP_pressure;BME280_temperature;BME280_humidity;BME280_pressure;Samples;Min_cycle;Max_cycle;Signal;HPM_P1;HPM_P2
2021/03/20 00:00:29;;;;;;;12.23;7.15;;;7.30;88.20;;;;;;5047021;28;20305;-74
2021/03/20 00:02:55;;;;;;;13.95;7.65;;;7.30;88.40;;;;;;5048970;28;20288;-74
2021/03/20 00:05:23;;;;;;;11.13;6.82;;;7.30;88.50;;;;;;5047329;28;20203;-76
2021/03/20 00:07:51;;;;;;;15.35;6.95;;;7.20;88.60;;;;;;5048974;28;20213;-75
2021/03/20 00:10:19;;;;;;;11.48;6.80;;;7.20;88.80;;;;;;5049873;28;20199;-76
2021/03/20 00:12:48;;;;;;;13.02;7.20;;;7.20;89.00;;;;;;5049203;28;20199;-75
2021/03/20 00:15:17;;;;;;;11.43;7.32;;;7.20;89.20;;;;;;5032815;28;20226;-74
2021/03/20 00:17:43;;;;;;;13.35;7.20;;;7.20;89.40;;;;;;5031897;28;20199;-74
2021/03/20 00:20:12;;;;;;;10.75;6.50;;;7.20;89.50;;;;;;5050119;28;20626;-74
2021/03/20 00:22:39;;;;;;;11.93;6.75;;;7.10;89.50;;;;;;5048972;28;20746;-74
2021/03/20 00:25:07;;;;;;;12.98;7.35;;;7.10;89.70;;;;;;5025627;28;20195;-75
2021/03/20 00:27:33;;;;;;;15.02;7.30;;;7.10;89.80;;;;;;5046153;28;20212;-76
2021/03/20 00:30:01;;;;;;;10.73;7.07;;;7.10;90.00;;;;;;5048713;28;20203;-74
2021/03/20 00:32:27;;;;;;;13.43;6.97;;;7.00;90.00;;;;;;5047958;28;20608;-75
2021/03/20 00:34:53;;;;;;;12.90;6.90;;;7.00;90.00;;;;;;5030510;28;20223;-73
2021/03/20 00:37:20;;;;;;;12.25;7.60;;;6.90;90.10;;;;;;5049314;28;20200;-76
2021/03/20 00:39:46;;;;;;;16.05;8.85;;;6.90;90.20;;;;;;5048397;28;20214;-74
2021/03/20 00:42:13;;;;;;;19.08;7.93;;;6.90;90.30;;;;;;5031675;28;20672;-74
2021/03/20 00:44:39;;;;;;;12.75;8.00;;;6.90;90.30;;;;;;5048524;28;20278;-74
2021/03/20 00:47:07;;;;;;;15.73;8.68;;;6.90;90.30;;;;;;5045206;28;20741;-74
2021/03/20 00:49:33;;;;;;;20.95;8.90;;;6.80;90.40;;;;;;5047428;28;20747;-73
2021/03/20 00:52:02;;;;;;;17.90;8.48;;;6.80;90.50;;;;;;5048721;28;20666;-73
2021/03/20 00:54:28;;;;;;;13.95;8.35;;;6.80;90.50;;;;;;5030385;28;20207;-74
2021/03/20 00:56:55;;;;;;;18.65;8.15;;;6.80;90.60;;;;;;5049200;28;20226;-73
2021/03/20 00:59:21;;;;;;;11.77;7.88;;;6.70;90.70;;;;;;5047823;28;20204;-74
2021/03/20 01:01:47;;;;;;;13.13;8.00;;;6.70;90.70;;;;;;5048500;28;20195;-73
2021/03/20 01:04:14;;;;;;;14.50;8.38;;;6.70;91.10;;;;;;5046216;28;20199;-73
2021/03/20 01:06:41;;;;;;;12.70;7.45;;;6.60;90.90;;;;;;5047194;28;20199;-74
2021/03/20 01:09:07;;;;;;;12.50;7.53;;;6.60;90.90;;;;;;5046564;28;20222;-74
2021/03/20 01:11:34;;;;;;;12.23;7.18;;;6.60;91.00;;;;;;5047251;28;20195;-75
2021/03/20 01:14:00;;;;;;;16.02;7.35;;;6.60;91.00;;;;;;5047441;28;20290;-75
2021/03/20 01:16:28;;;;;;;19.73;7.82;;;6.60;91.10;;;;;;5046681;28;20219;-76
2021/03/20 01:18:54;;;;;;;13.50;7.18;;;6.60;91.10;;;;;;5047856;28;20207;-74
2021/03/20 01:21:23;;;;;;;13.95;7.63;;;6.50;91.20;;;;;;5049284;28;20957;-74
2021/03/20 01:23:50;;;;;;;12.68;7.88;;;6.60;91.20;;;;;;5044979;28;20216;-73
2021/03/20 01:26:16;;;;;;;12.43;7.50;;;6.50;91.30;;;;;;5048815;28;20195;-74
2021/03/20 01:28:43;;;;;;;13.50;7.25;;;6.50;91.40;;;;;;5029452;28;20241;-75
2021/03/20 01:31:12;;;;;;;15.70;7.57;;;6.50;91.40;;;;;;5048634;28;20199;-76
2021/03/20 01:33:39;;;;;;;13.95;8.48;;;6.50;91.40;;;;;;5046512;28;20215;-74
2021/03/20 01:36:07;;;;;;;15.23;8.90;;;6.40;91.40;;;;;;5048298;28;20223;-74
2021/03/20 01:38:34;;;;;;;11.43;7.97;;;6.40;91.50;;;;;;5046889;28;20544;-73
2021/03/20 01:41:04;;;;;;;11.35;7.75;;;6.40;91.60;;;;;;5047879;28;20200;-74
2021/03/20 01:43:32;;;;;;;13.00;8.00;;;6.40;91.70;;;;;;5046326;28;20210;-74
2021/03/20 01:46:33;;;;;;;15.40;8.27;;;6.30;91.70;;;;;;5044769;28;20322;-75
2021/03/20 01:49:00;;;;;;;13.20;6.82;;;6.30;92.10;;;;;;5044530;28;20203;-74
2021/03/20 01:51:26;;;;;;;13.73;8.27;;;6.20;91.80;;;;;;5045286;28;20269;-74
2021/03/20 01:53:55;;;;;;;16.08;8.30;;;6.20;91.90;;;;;;5047310;28;20210;-74
2021/03/20 01:56:23;;;;;;;12.88;7.93;;;6.20;91.90;;;;;;5047266;28;20218;-74
2021/03/20 01:58:53;;;;;;;13.45;8.00;;;6.20;92.00;;;;;;5046332;28;20199;-74
2021/03/20 02:01:24;;;;;;;12.25;7.40;;;6.20;92.00;;;;;;5047517;28;20537;-75
2021/03/20 02:03:51;;;;;;;10.73;7.30;;;6.20;92.10;;;;;;5029250;28;20220;-75
2021/03/20 02:06:18;;;;;;;13.18;7.93;;;6.10;92.10;;;;;;5044437;28;20207;-74
2021/03/20 02:08:47;;;;;;;10.55;6.97;;;6.20;92.10;;;;;;5029717;28;22044;-75
2021/03/20 02:11:18;;;;;;;9.38;7.43;;;6.20;92.20;;;;;;5046344;28;20721;-73
2021/03/20 02:13:48;;;;;;;10.15;7.40;;;6.10;92.20;;;;;;5045393;28;20663;-73
2021/03/20 02:16:19;;;;;;;13.68;7.25;;;6.10;92.20;;;;;;5046310;28;20687;-75
2021/03/20 02:18:49;;;;;;;12.75;7.40;;;6.10;92.20;;;;;;5044386;28;20191;-74
2021/03/20 02:21:22;;;;;;;11.63;6.85;;;6.10;92.30;;;;;;5027721;28;20206;-74
2021/03/20 02:24:25;;;;;;;14.40;7.78;;;6.10;92.30;;;;;;5046856;28;20203;-75
2021/03/20 02:27:27;;;;;;;11.70;7.53;;;6.10;92.30;;;;;;5045951;28;20199;-75
2021/03/20 02:30:22;;;;;;;11.52;7.15;;;6.00;92.40;;;;;;4996167;28;20222;-74
2021/03/20 02:33:10;;;;;;;12.52;7.22;;;6.10;92.40;;;;;;5029341;28;20205;-73
2021/03/20 02:35:43;;;;;;;13.02;7.40;;;6.00;92.40;;;;;;5025252;28;20253;-74
2021/03/20 02:38:20;;;;;;;11.20;7.75;;;6.00;92.40;;;;;;5046075;28;20218;-74
2021/03/20 02:40:56;;;;;;;11.82;7.90;;;6.00;92.50;;;;;;5045548;28;20301;-74
2021/03/20 02:43:31;;;;;;;11.82;7.57;;;6.00;92.60;;;;;;5047057;28;20236;-74
2021/03/20 02:46:04;;;;;;;12.02;7.80;;;6.00;92.60;;;;;;5028349;28;20234;-76
2021/03/20 02:48:37;;;;;;;12.50;7.18;;;6.00;92.70;;;;;;5046992;28;20207;-74
2021/03/20 02:51:08;;;;;;;14.02;7.53;;;6.00;92.70;;;;;;5045616;28;20651;-74
2021/03/20 02:53:40;;;;;;;15.27;7.15;;;5.90;92.70;;;;;;5045584;28;20198;-75
2021/03/20 02:56:11;;;;;;;10.00;7.20;;;5.90;92.80;;;;;;5044625;28;20260;-74
2021/03/20 02:58:45;;;;;;;11.23;8.13;;;5.90;92.90;;;;;;5046686;28;20207;-74
2021/03/20 03:01:15;;;;;;;11.80;7.07;;;5.90;92.90;;;;;;5045253;28;20203;-73
2021/03/20 03:03:45;;;;;;;11.85;8.18;;;5.90;93.00;;;;;;5047227;28;20211;-74
2021/03/20 03:06:21;;;;;;;11.10;8.05;;;5.90;93.00;;;;;;5044204;28;20207;-73
2021/03/20 03:08:52;;;;;;;14.45;7.95;;;5.90;93.10;;;;;;5047226;28;20191;-75
2021/03/20 03:11:22;;;;;;;11.93;7.25;;;5.90;93.10;;;;;;5044337;28;20676;-74
2021/03/20 03:13:58;;;;;;;13.13;8.15;;;5.90;93.10;;;;;;5029524;28;20238;-73
2021/03/20 03:16:29;;;;;;;11.55;8.05;;;5.90;93.20;;;;;;5046206;28;20219;-74
2021/03/20 03:19:01;;;;;;;11.60;7.90;;;5.80;93.30;;;;;;5046302;28;20214;-74
2021/03/20 03:21:31;;;;;;;14.10;8.35;;;5.80;93.30;;;;;;5045842;28;20570;-74
2021/03/20 03:23:58;;;;;;;12.27;7.75;;;5.80;93.30;;;;;;5043968;28;20203;-73
2021/03/20 03:26:27;;;;;;;12.05;8.10;;;5.80;93.40;;;;;;5045432;28;20195;-72
2021/03/20 03:28:56;;;;;;;12.35;8.38;;;5.80;93.40;;;;;;5028414;28;20195;-73
2021/03/20 03:31:30;;;;;;;12.15;7.85;;;5.80;93.40;;;;;;5045910;28;20245;-74
2021/03/20 03:34:02;;;;;;;10.82;7.72;;;5.80;93.40;;;;;;5045146;28;20676;-75
2021/03/20 03:36:35;;;;;;;12.73;8.93;;;5.80;93.40;;;;;;5045595;28;20218;-75
2021/03/20 03:39:10;;;;;;;13.35;8.68;;;5.80;93.40;;;;;;5045563;28;20203;-74
2021/03/20 03:41:39;;;;;;;14.50;8.45;;;5.70;93.40;;;;;;5045717;28;20573;-73
2021/03/20 03:44:07;;;;;;;11.63;8.20;;;5.70;93.40;;;;;;5044715;28;20215;-74
2021/03/20 03:46:37;;;;;;;13.93;8.40;;;5.70;93.40;;;;;;5046230;28;20266;-73
2021/03/20 03:49:07;;;;;;;17.50;8.95;;;5.70;93.40;;;;;;5025021;28;20218;-74
2021/03/20 03:51:34;;;;;;;14.50;8.73;;;5.60;93.40;;;;;;5045216;28;20196;-75
2021/03/20 03:54:01;;;;;;;12.05;8.70;;;5.60;93.50;;;;;;5044987;28;20248;-74
2021/03/20 03:56:42;;;;;;;11.50;8.27;;;5.50;93.50;;;;;;5046429;28;20213;-75
2021/03/20 03:59:14;;;;;;;12.35;8.00;;;5.50;93.60;;;;;;5045713;28;20211;-73
2021/03/20 04:01:50;;;;;;;11.32;8.43;;;5.50;93.60;;;;;;5045784;28;20659;-74
2021/03/20 04:04:36;;;;;;;12.93;8.45;;;5.50;93.60;;;;;;5047076;28;20200;-74
2021/03/20 04:07:19;;;;;;;13.75;8.90;;;5.40;93.60;;;;;;5050240;28;20597;-77
2021/03/20 04:09:57;;;;;;;12.30;8.50;;;5.40;93.60;;;;;;5047305;28;20632;-76
2021/03/20 04:12:31;;;;;;;12.98;8.73;;;5.40;93.70;;;;;;5032159;28;20211;-75
2021/03/20 04:15:02;;;;;;;14.23;9.18;;;5.40;93.70;;;;;;5029642;28;20246;-72
2021/03/20 04:17:36;;;;;;;13.63;9.48;;;5.30;93.70;;;;;;5049413;28;20218;-74
2021/03/20 04:20:11;;;;;;;13.98;8.52;;;5.30;93.70;;;;;;5046074;28;20286;-74
2021/03/20 04:22:42;;;;;;;11.88;8.43;;;5.30;93.80;;;;;;5048181;28;20289;-74
2021/03/20 04:25:18;;;;;;;17.23;9.20;;;5.30;93.80;;;;;;5047738;28;20200;-75
2021/03/20 04:27:50;;;;;;;12.73;9.10;;;5.30;93.80;;;;;;5047461;28;20206;-75
2021/03/20 04:30:23;;;;;;;13.00;9.02;;;5.30;93.90;;;;;;5047072;28;20544;-75
2021/03/20 04:32:52;;;;;;;15.27;9.50;;;5.30;93.90;;;;;;5048435;28;20205;-75
2021/03/20 04:35:25;;;;;;;16.10;9.75;;;5.30;93.90;;;;;;5048744;28;20219;-74
2021/03/20 04:37:54;;;;;;;14.23;9.50;;;5.20;93.90;;;;;;5048935;28;20565;-74
2021/03/20 04:40:31;;;;;;;13.48;8.98;;;5.20;94.00;;;;;;5048707;28;20249;-74
2021/03/20 04:42:59;;;;;;;16.25;9.27;;;5.20;94.00;;;;;;5046166;28;20207;-74
2021/03/20 04:45:30;;;;;;;16.33;9.35;;;5.20;94.10;;;;;;5048117;28;20234;-75
2021/03/20 04:48:01;;;;;;;16.95;9.32;;;5.20;94.10;;;;;;5048391;28;20206;-75
2021/03/20 04:50:30;;;;;;;17.33;10.43;;;5.10;94.20;;;;;;5046438;28;20218;-75
2021/03/20 04:52:59;;;;;;;14.60;9.13;;;5.10;94.30;;;;;;5048812;28;20199;-74
2021/03/20 04:55:27;;;;;;;15.98;8.93;;;5.10;94.40;;;;;;5048091;28;20639;-74
2021/03/20 04:58:00;;;;;;;21.35;9.27;;;5.20;94.50;;;;;;5046900;28;20199;-77
2021/03/20 05:00:31;;;;;;;15.02;9.65;;;5.10;94.50;;;;;;5049234;28;20226;-75
2021/03/20 05:03:05;;;;;;;14.40;8.65;;;5.20;94.70;;;;;;5046801;28;20207;-74
2021/03/20 05:05:36;;;;;;;13.55;9.38;;;5.20;94.70;;;;;;5048997;28;20206;-75
2021/03/20 05:08:07;;;;;;;13.23;9.38;;;5.20;94.80;;;;;;5045262;28;20210;-74
2021/03/20 05:10:41;;;;;;;12.98;9.15;;;5.30;94.90;;;;;;5049377;28;20199;-74
2021/03/20 05:13:16;;;;;;;14.85;10.07;;;5.30;94.90;;;;;;5029169;28;20215;-74
2021/03/20 05:15:42;;;;;;;15.90;9.48;;;5.30;95.00;;;;;;5047077;28;20222;-74
2021/03/20 05:18:09;;;;;;;14.90;9.23;;;5.40;95.00;;;;;;5047432;28;20210;-74
2021/03/20 05:20:36;;;;;;;14.82;10.10;;;5.40;95.00;;;;;;5048693;28;20214;-75
2021/03/20 05:23:03;;;;;;;15.73;9.82;;;5.40;95.10;;;;;;5047602;28;20230;-74
2021/03/20 05:25:29;;;;;;;15.00;9.38;;;5.40;95.10;;;;;;5029437;28;20328;-74
2021/03/20 05:27:56;;;;;;;16.67;9.77;;;5.40;95.50;;;;;;5047719;28;20221;-75
2021/03/20 05:30:24;;;;;;;13.30;9.45;;;5.40;95.20;;;;;;5047060;28;20693;-76
2021/03/20 05:32:50;;;;;;;15.18;9.70;;;5.40;95.20;;;;;;5030073;28;20207;-75
2021/03/20 05:35:24;;;;;;;18.13;9.52;;;5.40;95.20;;;;;;5048122;28;20226;-74
2021/03/20 05:37:51;;;;;;;14.32;9.93;;;5.40;95.20;;;;;;5046572;28;20203;-74
2021/03/20 05:40:25;;;;;;;17.40;10.13;;;5.40;95.30;;;;;;5029325;28;20585;-75
2021/03/20 05:43:14;;;;;;;15.93;10.15;;;5.40;95.40;;;;;;5044381;28;20194;-75
2021/03/20 05:45:48;;;;;;;14.93;9.75;;;5.40;95.50;;;;;;5046945;28;20231;-74
2021/03/20 05:48:17;;;;;;;15.43;9.98;;;5.40;95.50;;;;;;5045608;28;22045;-74
2021/03/20 05:50:59;;;;;;;16.75;10.48;;;5.40;95.50;;;;;;5047170;28;20207;-77
2021/03/20 05:53:50;;;;;;;17.25;10.25;;;5.40;95.50;;;;;;5046732;28;20309;-74
2021/03/20 05:56:23;;;;;;;17.10;10.38;;;5.40;95.60;;;;;;5047191;28;20682;-75
2021/03/20 05:59:13;;;;;;;14.98;10.60;;;5.40;95.60;;;;;;5043670;28;20215;-73
2021/03/20 06:01:53;;;;;;;13.55;9.93;;;5.40;95.60;;;;;;5021683;28;20214;-76
2021/03/20 06:04:31;;;;;;;17.85;10.10;;;5.40;95.60;;;;;;5030022;28;20727;-75
2021/03/20 06:07:12;;;;;;;14.00;10.10;;;5.40;95.60;;;;;;5045737;28;20207;-75
2021/03/20 06:09:51;;;;;;;15.60;10.13;;;5.40;95.60;;;;;;5045202;28;20207;-75
2021/03/20 06:12:34;;;;;;;17.23;11.23;;;5.40;95.60;;;;;;5027903;28;20202;-75
2021/03/20 06:15:13;;;;;;;16.80;10.18;;;5.40;95.60;;;;;;5047462;28;21016;-74
2021/03/20 06:17:55;;;;;;;15.95;10.30;;;5.40;95.60;;;;;;5045566;28;20750;-74
2021/03/20 06:20:31;;;;;;;22.42;11.23;;;5.40;95.70;;;;;;5045823;28;20875;-73
2021/03/20 06:23:22;;;;;;;16.77;11.05;;;5.40;95.70;;;;;;5044135;28;20997;-75
2021/03/20 06:26:04;;;;;;;19.33;11.18;;;5.40;95.70;;;;;;5046377;28;20199;-72
2021/03/20 06:28:34;;;;;;;15.10;10.43;;;5.50;95.80;;;;;;5024868;28;20614;-75
2021/03/20 06:31:13;;;;;;;16.27;10.57;;;5.50;95.80;;;;;;5045801;28;20572;-73
2021/03/20 06:33:46;;;;;;;17.30;11.00;;;5.50;95.80;;;;;;5043949;28;20600;-74
2021/03/20 06:36:18;;;;;;;16.30;10.85;;;5.60;95.90;;;;;;5028976;28;20284;-76
2021/03/20 06:38:50;;;;;;;15.60;10.63;;;5.60;95.90;;;;;;5045081;28;20199;-73
2021/03/20 06:41:24;;;;;;;15.70;10.50;;;5.60;96.00;;;;;;5046124;28;20906;-74
2021/03/20 06:43:54;;;;;;;15.43;10.57;;;5.60;96.10;;;;;;5044357;28;20207;-74
2021/03/20 06:46:28;;;;;;;18.30;11.35;;;5.60;96.10;;;;;;5046038;28;20260;-73
2021/03/20 06:48:55;;;;;;;17.55;11.30;;;5.60;96.20;;;;;;5045234;28;20198;-76
2021/03/20 06:51:22;;;;;;;21.48;12.10;;;5.60;96.30;;;;;;5045836;28;20542;-75
2021/03/20 06:53:55;;;;;;;18.55;12.23;;;5.70;96.30;;;;;;5044162;28;20210;-75
2021/03/20 06:56:24;;;;;;;17.38;12.02;;;5.70;96.40;;;;;;5041598;28;20279;-75
2021/03/20 06:58:51;;;;;;;17.13;11.73;;;5.70;96.40;;;;;;5039409;28;20203;-73
2021/03/20 07:01:38;;;;;;;17.85;11.68;;;5.80;96.50;;;;;;5042625;28;20562;-73
2021/03/20 07:04:22;;;;;;;17.05;11.50;;;5.80;96.60;;;;;;5026735;28;20235;-74
2021/03/20 07:07:12;;;;;;;18.02;10.98;;;5.80;96.60;;;;;;5038429;28;20206;-72
2021/03/20 07:09:40;;;;;;;18.02;11.65;;;5.90;96.60;;;;;;5038939;28;20762;-75
2021/03/20 07:12:10;;;;;;;18.92;10.48;;;5.90;96.50;;;;;;5026942;28;20210;-74
2021/03/20 07:14:40;;;;;;;18.23;10.48;;;5.90;96.50;;;;;;5043104;28;21102;-75
2021/03/20 07:17:10;;;;;;;19.80;10.65;;;5.90;96.50;;;;;;5042938;28;20836;-75
2021/03/20 07:19:52;;;;;;;14.02;10.25;;;5.90;96.50;;;;;;5026033;28;20211;-74
2021/03/20 07:22:27;;;;;;;18.05;10.50;;;6.00;96.50;;;;;;5041593;28;20206;-74
2021/03/20 07:24:54;;;;;;;17.88;11.32;;;6.00;96.40;;;;;;5042335;28;20301;-76
2021/03/20 07:27:29;;;;;;;18.58;11.20;;;6.00;96.30;;;;;;5044411;28;20203;-75
2021/03/20 07:29:58;;;;;;;16.25;10.40;;;6.00;96.20;;;;;;5042280;28;20565;-73
2021/03/20 07:32:38;;;;;;;18.77;11.77;;;6.00;96.10;;;;;;5025500;28;20218;-74
2021/03/20 07:35:29;;;;;;;19.88;10.88;;;6.00;96.00;;;;;;5044516;28;20206;-75
2021/03/20 07:38:11;;;;;;;17.48;10.63;;;6.00;95.90;;;;;;5046081;28;20191;-75
2021/03/20 07:40:38;;;;;;;19.90;11.00;;;6.00;95.80;;;;;;5049609;28;20199;-75
2021/03/20 07:43:14;;;;;;;16.65;11.20;;;5.90;95.70;;;;;;5048806;28;20675;-73
2021/03/20 07:45:42;;;;;;;18.38;11.75;;;5.90;95.50;;;;;;5047172;28;20226;-74
2021/03/20 07:48:22;;;;;;;17.85;11.75;;;5.90;95.50;;;;;;5048168;28;20203;-75
2021/03/20 07:50:58;;;;;;;16.50;10.85;;;5.90;95.50;;;;;;5047934;28;20206;-74
2021/03/20 07:53:25;;;;;;;16.40;11.07;;;5.90;95.50;;;;;;5048459;28;20260;-73
2021/03/20 07:56:02;;;;;;;19.10;11.43;;;5.90;95.40;;;;;;5050427;28;20219;-73
2021/03/20 07:58:35;;;;;;;18.83;11.18;;;5.90;95.40;;;;;;5031483;28;20314;-73
2021/03/20 08:01:05;;;;;;;20.25;11.57;;;5.90;95.30;;;;;;5048133;28;20203;-73
2021/03/20 08:03:33;;;;;;;19.88;11.55;;;5.90;95.30;;;;;;5048644;28;20859;-74
2021/03/20 08:06:14;;;;;;;17.65;10.90;;;5.90;95.30;;;;;;5049381;28;20636;-74
2021/03/20 08:08:41;;;;;;;17.33;11.75;;;6.00;95.30;;;;;;5048107;28;20581;-73
2021/03/20 08:11:29;;;;;;;18.98;10.88;;;6.00;95.40;;;;;;5031282;28;20624;-73
2021/03/20 08:14:01;;;;;;;18.60;12.13;;;6.10;95.40;;;;;;5046349;28;20203;-73
2021/03/20 08:16:28;;;;;;;20.70;11.55;;;6.10;95.40;;;;;;5048685;28;20219;-75
2021/03/20 08:18:57;;;;;;;21.40;10.95;;;6.20;95.50;;;;;;5030536;28;21656;-74
2021/03/20 08:21:58;;;;;;;17.67;11.20;;;6.20;95.50;;;;;;5048910;28;20210;-75
2021/03/20 08:24:36;;;;;;;20.05;11.52;;;6.30;95.50;;;;;;5047880;28;20202;-74
2021/03/20 08:27:11;;;;;;;19.02;11.05;;;6.40;95.50;;;;;;5049482;28;20213;-74
2021/03/20 08:30:14;;;;;;;17.90;12.10;;;6.40;95.50;;;;;;5049478;28;20217;-74
2021/03/20 08:33:16;;;;;;;15.75;9.93;;;6.50;95.40;;;;;;5000589;28;20229;-75
2021/03/20 08:35:51;;;;;;;19.40;11.95;;;6.50;95.30;;;;;;5032202;28;20233;-74
2021/03/20 08:38:35;;;;;;;18.73;12.32;;;6.50;95.20;;;;;;5047626;28;20190;-73
2021/03/20 08:41:08;;;;;;;18.92;11.55;;;6.50;95.10;;;;;;5048599;28;20269;-74
2021/03/20 08:43:52;;;;;;;19.33;11.77;;;6.50;95.10;;;;;;5047446;28;20203;-75
2021/03/20 08:46:32;;;;;;;17.20;11.68;;;6.60;95.10;;;;;;5041876;28;20707;-73
2021/03/20 08:49:08;;;;;;;18.67;11.38;;;6.60;95.00;;;;;;5020408;28;20217;-76
2021/03/20 08:51:44;;;;;;;15.32;10.43;;;6.60;95.00;;;;;;5019779;28;20603;-74
2021/03/20 08:54:29;;;;;;;17.45;10.55;;;6.70;95.00;;;;;;5027462;28;20208;-75
2021/03/20 08:57:07;;;;;;;17.45;10.13;;;6.70;95.00;;;;;;5023412;28;20251;-78
2021/03/20 08:59:36;;;;;;;16.20;10.57;;;6.70;94.90;;;;;;5024139;28;20211;-73
2021/03/20 09:02:11;;;;;;;16.90;10.35;;;6.70;94.90;;;;;;5023332;28;20564;-73
2021/03/20 09:04:38;;;;;;;16.30;9.98;;;6.80;95.00;;;;;;5026756;28;20215;-74
2021/03/20 09:07:10;;;;;;;16.13;12.20;;;6.90;95.00;;;;;;5028540;28;20418;-74
2021/03/20 09:09:42;;;;;;;17.35;11.98;;;7.10;94.70;;;;;;5025487;28;20799;-75
2021/03/20 09:12:18;;;;;;;15.47;11.23;;;7.40;94.10;;;;;;5022102;28;20438;-73
2021/03/20 09:14:46;;;;;;;16.02;11.13;;;7.60;93.40;;;;;;5021246;28;21342;-74
2021/03/20 09:17:18;;;;;;;18.30;11.35;;;7.80;92.80;;;;;;5021641;28;20431;-74
2021/03/20 09:19:51;;;;;;;16.92;10.95;;;7.90;92.60;;;;;;5025933;28;20931;-74
2021/03/20 09:22:22;;;;;;;12.18;8.20;;;8.10;92.00;;;;;;5028378;28;20927;-74
2021/03/20 09:24:52;;;;;;;10.68;7.97;;;8.20;91.10;;;;;;5023252;28;20506;-74
2021/03/20 09:27:52;;;;;;;11.30;7.90;;;8.30;90.50;;;;;;5027951;28;20430;-74
2021/03/20 09:30:20;;;;;;;12.98;8.05;;;8.50;90.10;;;;;;5024258;28;20427;-73
2021/03/20 09:32:49;;;;;;;13.73;8.47;;;8.60;90.00;;;;;;5015977;28;20436;-74
2021/03/20 09:35:25;;;;;;;12.73;8.55;;;8.60;89.80;;;;;;5026502;28;20470;-73
2021/03/20 09:37:53;;;;;;;12.80;8.20;;;8.70;89.40;;;;;;5025570;28;20433;-72
2021/03/20 09:40:59;;;;;;;13.02;8.75;;;8.80;89.70;;;;;;5027742;28;20460;-74
2021/03/20 09:43:45;;;;;;;13.88;8.60;;;8.90;89.20;;;;;;5019846;28;20435;-74
2021/03/20 09:46:49;;;;;;;13.38;8.73;;;9.10;88.70;;;;;;5035672;28;20838;-74
2021/03/20 09:49:58;;;;;;;12.88;8.55;;;9.20;89.10;;;;;;5027364;28;20846;-74
2021/03/20 09:52:38;;;;;;;11.15;7.95;;;9.30;87.70;;;;;;5046405;28;20437;-75
2021/03/20 09:55:32;;;;;;;12.40;8.38;;;9.30;86.70;;;;;;5026791;28;20449;-74
2021/03/20 09:58:03;;;;;;;13.97;8.90;;;9.40;86.70;;;;;;5043105;28;20768;-74
2021/03/20 10:01:01;;;;;;;14.67;8.80;;;9.40;86.20;;;;;;5044891;28;20885;-74
2021/03/20 10:03:44;;;;;;;12.73;8.57;;;9.50;85.90;;;;;;5044943;28;20940;-74
2021/03/20 10:06:27;;;;;;;14.77;8.70;;;9.60;86.30;;;;;;5028998;28;20426;-74
2021/03/20 10:09:23;;;;;;;13.65;8.60;;;9.60;86.30;;;;;;5044638;28;20424;-74
2021/03/20 10:12:17;;;;;;;14.77;8.63;;;9.70;85.30;;;;;;5045876;28;20432;-74
2021/03/20 10:15:08;;;;;;;12.18;8.18;;;9.80;85.10;;;;;;5044713;28;20421;-74
2021/03/20 10:18:01;;;;;;;14.88;8.20;;;9.70;85.20;;;;;;5044169;28;20453;-74
2021/03/20 10:20:38;;;;;;;14.20;8.02;;;9.80;85.20;;;;;;5043017;28;20491;-73
2021/03/20 10:23:13;;;;;;;12.32;8.00;;;9.80;84.50;;;;;;5044264;28;20556;-73
2021/03/20 10:25:47;;;;;;;13.45;8.75;;;9.80;84.40;;;;;;5047154;28;20432;-74
2021/03/20 10:28:15;;;;;;;11.37;8.10;;;9.80;84.50;;;;;;5045173;28;20897;-75
2021/03/20 10:30:54;;;;;;;15.38;8.32;;;9.70;84.70;;;;;;5046385;28;20516;-74
2021/03/20 10:33:26;;;;;;;13.60;8.60;;;9.80;85.20;;;;;;5044109;28;20824;-72
2021/03/20 10:35:52;;;;;;;14.60;8.63;;;9.80;85.30;;;;;;5046871;28;20456;-74
2021/03/20 10:38:26;;;;;;;13.68;7.85;;;9.80;85.20;;;;;;5042639;28;20421;-73
2021/03/20 10:40:59;;;;;;;14.07;8.20;;;9.80;85.10;;;;;;5028964;28;20521;-74
2021/03/20 10:43:26;;;;;;;12.83;8.40;;;9.80;85.00;;;;;;5044390;28;20433;-75
2021/03/20 10:45:52;;;;;;;15.25;8.00;;;9.80;85.20;;;;;;5046272;28;20425;-74
2021/03/20 10:48:25;;;;;;;10.23;7.07;;;9.70;85.60;;;;;;5026009;28;20441;-75
2021/03/20 10:51:01;;;;;;;14.15;8.45;;;9.80;85.40;;;;;;5045867;28;20433;-74
2021/03/20 10:53:32;;;;;;;11.45;6.10;;;9.80;85.40;;;;;;5027402;28;20425;-75
2021/03/20 10:56:00;;;;;;;11.48;7.78;;;9.90;85.60;;;;;;5041871;28;20429;-74
2021/03/20 10:58:32;;;;;;;14.27;8.05;;;10.00;85.50;;;;;;5027026;28;20425;-73
2021/03/20 11:00:59;;;;;;;13.48;6.70;;;10.00;84.70;;;;;;5028694;28;20503;-73
2021/03/20 11:03:32;;;;;;;13.17;6.90;;;10.10;84.60;;;;;;5044106;28;20425;-73
2021/03/20 11:06:10;;;;;;;13.10;7.80;;;10.20;84.30;;;;;;5046243;28;20433;-73
2021/03/20 11:08:37;;;;;;;17.87;7.87;;;10.20;84.20;;;;;;5041194;28;20478;-73
2021/03/20 11:11:22;;;;;;;12.52;6.28;;;10.30;84.00;;;;;;5046788;28;20785;-73
2021/03/20 11:13:51;;;;;;;10.10;5.30;;;10.30;83.50;;;;;;5046150;28;20436;-74
2021/03/20 11:16:20;;;;;;;12.55;5.82;;;10.40;82.80;;;;;;5032949;28;20421;-73
2021/03/20 11:18:49;;;;;;;8.43;4.05;;;10.40;82.70;;;;;;5048310;28;23506;-73
2021/03/20 11:21:25;;;;;;;7.38;4.00;;;10.50;82.60;;;;;;5050526;28;20440;-74
2021/03/20 11:23:58;;;;;;;10.40;4.40;;;10.60;81.10;;;;;;5048932;28;20443;-76
2021/03/20 11:26:47;;;;;;;9.20;4.10;;;10.60;81.20;;;;;;5049889;28;21014;-75
2021/03/20 11:29:17;;;;;;;8.15;3.50;;;10.70;80.70;;;;;;5044429;28;20452;-74
2021/03/20 11:31:49;;;;;;;7.07;2.88;;;10.80;80.60;;;;;;5048550;28;20897;-75
2021/03/20 11:34:19;;;;;;;10.18;4.10;;;10.90;79.40;;;;;;5048666;28;21261;-73
2021/03/20 11:36:47;;;;;;;7.00;4.07;;;10.90;79.00;;;;;;5047610;28;20433;-74
2021/03/20 11:39:14;;;;;;;7.40;3.85;;;10.90;79.20;;;;;;5049116;28;20487;-73
2021/03/20 11:41:42;;;;;;;8.75;3.67;;;10.90;79.60;;;;;;5048510;28;20482;-73
2021/03/20 11:44:19;;;;;;;9.25;3.65;;;10.90;79.30;;;;;;5031123;28;20429;-74
2021/03/20 11:46:52;;;;;;;8.20;3.60;;;11.00;79.50;;;;;;5049337;28;20425;-74
2021/03/20 11:49:25;;;;;;;8.30;4.50;;;11.00;79.80;;;;;;5047746;28;20440;-74
2021/03/20 11:51:52;;;;;;;7.13;3.10;;;11.10;79.80;;;;;;5031357;28;20456;-75
2021/03/20 11:54:40;;;;;;;7.88;3.50;;;11.10;78.90;;;;;;5032132;28;20446;-75
2021/03/20 11:57:28;;;;;;;7.27;3.30;;;11.10;79.70;;;;;;5048638;28;20774;-74
2021/03/20 11:59:56;;;;;;;7.03;3.67;;;11.20;79.20;;;;;;5028603;28;20430;-73
2021/03/20 12:02:39;;;;;;;5.97;3.63;;;11.10;78.90;;;;;;5049610;28;20436;-73
2021/03/20 12:05:25;;;;;;;8.65;4.68;;;11.10;79.40;;;;;;5046740;28;20437;-71
2021/03/20 12:07:52;;;;;;;6.95;3.80;;;11.20;80.30;;;;;;5047534;28;20423;-74
2021/03/20 12:10:20;;;;;;;6.00;2.30;;;11.30;80.20;;;;;;5046008;28;20466;-73
2021/03/20 12:12:49;;;;;;;5.03;2.20;;;11.30;78.80;;;;;;5046403;28;20432;-73
2021/03/20 12:15:25;;;;;;;4.85;2.40;;;11.40;78.40;;;;;;5049005;28;21078;-74
2021/03/20 12:17:52;;;;;;;6.60;2.38;;;11.40;78.80;;;;;;5047030;28;20441;-73
2021/03/20 12:20:41;;;;;;;5.20;2.17;;;11.40;78.70;;;;;;5046759;28;20436;-77
2021/03/20 12:23:20;;;;;;;4.53;2.03;;;11.50;78.60;;;;;;5027622;28;20436;-72
2021/03/20 12:25:50;;;;;;;3.10;1.35;;;11.40;78.50;;;;;;5046305;28;20449;-73
2021/03/20 12:28:25;;;;;;;2.38;1.10;;;11.50;78.40;;;;;;5046351;28;20428;-74
2021/03/20 12:31:26;;;;;;;4.38;1.30;;;11.40;77.20;;;;;;5047611;28;20429;-72
2021/03/20 12:33:54;;;;;;;5.50;2.55;;;11.30;76.80;;;;;;5043667;28;20428;-73
2021/03/20 12:36:38;;;;;;;2.47;1.00;;;11.30;76.90;;;;;;5048580;28;20932;-73
2021/03/20 12:39:07;;;;;;;2.95;1.23;;;11.30;77.60;;;;;;5045166;28;20475;-74
2021/03/20 12:41:35;;;;;;;4.05;1.10;;;11.30;78.20;;;;;;5048455;28;20427;-74
2021/03/20 12:44:20;;;;;;;3.30;1.13;;;11.20;78.60;;;;;;5047404;28;20789;-73
2021/03/20 12:46:52;;;;;;;3.75;1.30;;;11.20;79.30;;;;;;5047467;28;21111;-75
2021/03/20 12:49:20;;;;;;;3.60;1.02;;;11.10;79.70;;;;;;5040937;28;20425;-75
2021/03/20 12:51:48;;;;;;;4.53;1.10;;;11.10;81.40;;;;;;5041903;28;20438;-76
2021/03/20 12:54:24;;;;;;;2.97;1.10;;;11.00;81.10;;;;;;5044626;28;20444;-75
2021/03/20 12:56:50;;;;;;;3.60;1.10;;;11.00;81.50;;;;;;5044219;28;20894;-74
2021/03/20 12:59:17;;;;;;;3.60;1.10;;;11.00;81.60;;;;;;5046845;28;20816;-74
2021/03/20 13:01:43;;;;;;;3.65;1.15;;;11.00;82.50;;;;;;5046884;28;20458;-74
2021/03/20 13:04:13;;;;;;;2.90;1.10;;;11.00;82.90;;;;;;5043166;28;20417;-74
2021/03/20 13:06:40;;;;;;;3.33;1.20;;;11.00;83.40;;;;;;5039421;28;20417;-74
2021/03/20 13:09:06;;;;;;;4.95;1.60;;;10.90;84.00;;;;;;5027873;28;20429;-73
2021/03/20 13:11:33;;;;;;;3.97;1.40;;;10.90;85.00;;;;;;5045724;28;20440;-73
2021/03/20 13:14:00;;;;;;;3.88;1.33;;;11.00;85.00;;;;;;5047224;28;20924;-74
2021/03/20 13:16:27;;;;;;;4.38;1.60;;;11.00;84.80;;;;;;5046515;28;20508;-75